sensor_id;sensor_type;location;lat;lon;timestamp;temperature;humidity
13229;DHT22;6680;53.220;10.402;2023-03-25T00:02:17;9.00;99.90
13229;DHT22;6680;53.220;10.402;2023-03-25T00:04:47;9.00;99.90
13229;DHT22;6680;53.220;10.402;2023-03-25T00:07:15;9.00;99.90
13229;DHT22;6680;53.220;10.402;2023-03-25T00:09:44;9.00;99.90
13229;DHT22;6680;53.220;10.402;2023-03-25T00:12:11;9.00;99.90
13229;DHT22;6680;53.220;10.402;2023-03-25T00:14:38;8.90;99.90
13229;DHT22;6680;53.220;10.402;2023-03-25T00:17:05;9.00;99.90
13229;DHT22;6680;53.220;10.402;2023-03-25T00:19:32;9.00;99.90
13229;DHT22;6680;53.220;10.402;2023-03-25T00:22:00;9.00;99.90
13229;DHT22;6680;53.220;10.402;2023-03-25T00:24:27;9.00;99.90
13229;DHT22;6680;53.220;10.402;2023-03-25T00:26:55;9.00;99.90
13229;DHT22;6680;53.220;10.402;2023-03-25T00:29:22;9.00;99.90
13229;DHT22;6680;53.220;10.402;2023-03-25T00:31:48;9.00;99.90
13229;DHT22;6680;53.220;10.402;2023-03-25T00:34:15;8.80;99.90
13229;DHT22;6680;53.220;10.402;2023-03-25T00:36:42;8.80;99.90
13229;DHT22;6680;53.220;10.402;2023-03-25T00:39:10;8.70;99.90
13229;DHT22;6680;53.220;10.402;2023-03-25T00:41:37;8.60;99.90
13229;DHT22;6680;53.220;10.402;2023-03-25T00:44:09;8.50;99.90
13229;DHT22;6680;53.220;10.402;2023-03-25T00:46:38;8.40;99.90
13229;DHT22;6680;53.220;10.402;2023-03-25T00:49:05;8.30;99.90
13229;DHT22;6680;53.220;10.402;2023-03-25T00:51:32;8.30;99.90
13229;DHT22;6680;53.220;10.402;2023-03-25T00:53:59;8.20;99.90
13229;DHT22;6680;53.220;10.402;2023-03-25T00:56:27;8.10;99.90
13229;DHT22;6680;53.220;10.402;2023-03-25T00:58:54;8.00;99.90
13229;DHT22;6680;53.220;10.402;2023-03-25T01:01:24;8.00;99.90
13229;DHT22;6680;53.220;10.402;2023-03-25T01:03:53;8.00;99.90
13229;DHT22;6680;53.220;10.402;2023-03-25T01:06:24;7.90;99.90
13229;DHT22;6680;53.220;10.402;2023-03-25T01:08:56;8.00;99.90
13229;DHT22;6680;53.220;10.402;2023-03-25T01:11:25;8.00;99.90
13229;DHT22;6680;53.220;10.402;2023-03-25T01:13:53;8.10;99.90
13229;DHT22;6680;53.220;10.402;2023-03-25T01:16:22;8.30;99.90
13229;DHT22;6680;53.220;10.402;2023-03-25T01:18:49;8.30;99.90
13229;DHT22;6680;53.220;10.402;2023-03-25T01:21:16;8.30;99.90
13229;DHT22;6680;53.220;10.402;2023-03-25T01:23:43;8.40;99.90
13229;DHT22;6680;53.220;10.402;2023-03-25T01:26:09;8.40;99.90
13229;DHT22;6680;53.220;10.402;2023-03-25T01:28:37;8.60;99.90
13229;DHT22;6680;53.220;10.402;2023-03-25T01:31:06;8.40;99.90
13229;DHT22;6680;53.220;10.402;2023-03-25T01:33:34;8.40;99.90
13229;DHT22;6680;53.220;10.402;2023-03-25T01:36:02;8.40;99.90
13229;DHT22;6680;53.220;10.402;2023-03-25T01:38:29;8.80;99.90
13229;DHT22;6680;53.220;10.402;2023-03-25T01:40:56;8.50;99.90
13229;DHT22;6680;53.220;10.402;2023-03-25T01:43:23;8.50;99.90
13229;DHT22;6680;53.220;10.402;2023-03-25T01:45:50;8.50;99.90
13229;DHT22;6680;53.220;10.402;2023-03-25T01:48:19;8.50;99.90
13229;DHT22;6680;53.220;10.402;2023-03-25T01:50:53;8.60;99.90
13229;DHT22;6680;53.220;10.402;2023-03-25T01:53:25;8.50;99.90
13229;DHT22;6680;53.220;10.402;2023-03-25T01:55:52;8.50;99.90
13229;DHT22;6680;53.220;10.402;2023-03-25T01:58:23;8.50;99.90
13229;DHT22;6680;53.220;10.402;2023-03-25T02:00:52;8.60;99.90
13229;DHT22;6680;53.220;10.402;2023-03-25T02:03:20;8.60;99.90
13229;DHT22;6680;53.220;10.402;2023-03-25T02:05:54;8.60;99.90
13229;DHT22;6680;53.220;10.402;2023-03-25T02:08:23;8.70;99.90
13229;DHT22;6680;53.220;10.402;2023-03-25T02:10:51;8.70;99.90
13229;DHT22;6680;53.220;10.402;2023-03-25T02:13:19;8.60;99.90
13229;DHT22;6680;53.220;10.402;2023-03-25T02:16:01;8.60;99.90
13229;DHT22;6680;53.220;10.402;2023-03-25T02:18:36;8.40;99.90
13229;DHT22;6680;53.220;10.402;2023-03-25T02:21:50;8.40;99.90
13229;DHT22;6680;53.220;10.402;2023-03-25T02:27:50;8.40;99.90
13229;DHT22;6680;53.220;10.402;2023-03-25T02:30:54;8.30;99.90
13229;DHT22;6680;53.220;10.402;2023-03-25T02:33:57;8.30;99.90
13229;DHT22;6680;53.220;10.402;2023-03-25T02:39:31;8.30;99.90
13229;DHT22;6680;53.220;10.402;2023-03-25T02:42:05;8.30;99.90
13229;DHT22;6680;53.220;10.402;2023-03-25T02:44:38;8.30;99.90
13229;DHT22;6680;53.220;10.402;2023-03-25T02:47:08;8.30;99.90
13229;DHT22;6680;53.220;10.402;2023-03-25T02:49:39;8.20;99.90
13229;DHT22;6680;53.220;10.402;2023-03-25T02:52:11;8.20;99.90
13229;DHT22;6680;53.220;10.402;2023-03-25T02:54:42;8.20;99.90
13229;DHT22;6680;53.220;10.402;2023-03-25T02:57:12;8.30;99.90
13229;DHT22;6680;53.220;10.402;2023-03-25T02:59:40;8.20;99.90
13229;DHT22;6680;53.220;10.402;2023-03-25T03:02:08;8.20;99.90
13229;DHT22;6680;53.220;10.402;2023-03-25T03:04:45;8.20;99.90
13229;DHT22;6680;53.220;10.402;2023-03-25T03:07:19;8.30;99.90
13229;DHT22;6680;53.220;10.402;2023-03-25T03:09:52;8.40;99.90
13229;DHT22;6680;53.220;10.402;2023-03-25T03:12:32;8.50;99.90
13229;DHT22;6680;53.220;10.402;2023-03-25T03:15:08;8.60;99.90
13229;DHT22;6680;53.220;10.402;2023-03-25T03:17:43;8.70;99.90
13229;DHT22;6680;53.220;10.402;2023-03-25T03:20:17;8.70;99.90
13229;DHT22;6680;53.220;10.402;2023-03-25T03:22:48;8.80;99.90
13229;DHT22;6680;53.220;10.402;2023-03-25T03:25:27;8.90;99.90
13229;DHT22;6680;53.220;10.402;2023-03-25T03:27:58;8.90;99.90
13229;DHT22;6680;53.220;10.402;2023-03-25T03:30:32;8.80;99.90
13229;DHT22;6680;53.220;10.402;2023-03-25T03:33:06;8.80;99.90
13229;DHT22;6680;53.220;10.402;2023-03-25T03:35:36;8.80;99.90
13229;DHT22;6680;53.220;10.402;2023-03-25T03:38:07;8.70;99.90
13229;DHT22;6680;53.220;10.402;2023-03-25T03:40:38;8.70;99.90
13229;DHT22;6680;53.220;10.402;2023-03-25T03:43:12;8.60;99.90
13229;DHT22;6680;53.220;10.402;2023-03-25T03:45:43;8.60;99.90
13229;DHT22;6680;53.220;10.402;2023-03-25T03:48:17;8.60;99.90
13229;DHT22;6680;53.220;10.402;2023-03-25T03:50:50;8.70;99.90
13229;DHT22;6680;53.220;10.402;2023-03-25T03:53:23;8.70;99.90
13229;DHT22;6680;53.220;10.402;2023-03-25T03:55:57;8.70;99.90
13229;DHT22;6680;53.220;10.402;2023-03-25T03:58:29;8.70;99.90
13229;DHT22;6680;53.220;10.402;2023-03-25T04:01:04;8.70;99.90
13229;DHT22;6680;53.220;10.402;2023-03-25T04:03:40;8.70;99.90
13229;DHT22;6680;53.220;10.402;2023-03-25T04:06:14;8.80;99.90
13229;DHT22;6680;53.220;10.402;2023-03-25T04:08:50;8.70;99.90
13229;DHT22;6680;53.220;10.402;2023-03-25T04:11:21;8.70;99.90
13229;DHT22;6680;53.220;10.402;2023-03-25T04:13:52;8.70;99.90
13229;DHT22;6680;53.220;10.402;2023-03-25T04:16:20;8.60;99.90
13229;DHT22;6680;53.220;10.402;2023-03-25T04:18:47;8.70;99.90
13229;DHT22;6680;53.220;10.402;2023-03-25T04:21:18;8.60;99.90
13229;DHT22;6680;53.220;10.402;2023-03-25T04:23:45;8.60;99.90
13229;DHT22;6680;53.220;10.402;2023-03-25T04:26:11;8.50;99.90
13229;DHT22;6680;53.220;10.402;2023-03-25T04:28:39;8.60;99.90
13229;DHT22;6680;53.220;10.402;2023-03-25T04:31:11;9.30;99.90
13229;DHT22;6680;53.220;10.402;2023-03-25T04:33:40;8.50;99.90
13229;DHT22;6680;53.220;10.402;2023-03-25T04:36:11;8.50;99.90
13229;DHT22;6680;53.220;10.402;2023-03-25T04:38:38;8.70;99.90
13229;DHT22;6680;53.220;10.402;2023-03-25T04:41:06;8.50;99.90
13229;DHT22;6680;53.220;10.402;2023-03-25T04:43:33;8.50;99.90
13229;DHT22;6680;53.220;10.402;2023-03-25T04:46:01;8.50;99.90
13229;DHT22;6680;53.220;10.402;2023-03-25T04:48:30;8.70;99.90
13229;DHT22;6680;53.220;10.402;2023-03-25T04:51:00;8.40;99.90
13229;DHT22;6680;53.220;10.402;2023-03-25T04:53:28;8.40;99.90
13229;DHT22;6680;53.220;10.402;2023-03-25T04:55:55;8.30;99.90
13229;DHT22;6680;53.220;10.402;2023-03-25T04:58:23;8.30;99.90
13229;DHT22;6680;53.220;10.402;2023-03-25T05:00:51;8.30;99.90
13229;DHT22;6680;53.220;10.402;2023-03-25T05:03:20;8.30;99.90
13229;DHT22;6680;53.220;10.402;2023-03-25T05:05:48;8.30;99.90
13229;DHT22;6680;53.220;10.402;2023-03-25T05:08:16;8.30;99.90
13229;DHT22;6680;53.220;10.402;2023-03-25T05:10:43;8.30;99.90
13229;DHT22;6680;53.220;10.402;2023-03-25T05:13:10;8.00;99.90
13229;DHT22;6680;53.220;10.402;2023-03-25T05:15:37;8.30;99.90
13229;DHT22;6680;53.220;10.402;2023-03-25T05:18:06;8.20;99.90
13229;DHT22;6680;53.220;10.402;2023-03-25T05:20:35;8.20;99.90
13229;DHT22;6680;53.220;10.402;2023-03-25T05:23:02;8.20;99.90
13229;DHT22;6680;53.220;10.402;2023-03-25T05:25:29;8.20;99.90
13229;DHT22;6680;53.220;10.402;2023-03-25T05:27:58;8.20;99.90
13229;DHT22;6680;53.220;10.402;2023-03-25T05:30:27;8.30;99.90
13229;DHT22;6680;53.220;10.402;2023-03-25T05:32:57;8.30;99.90
13229;DHT22;6680;53.220;10.402;2023-03-25T05:35:24;8.30;99.90
13229;DHT22;6680;53.220;10.402;2023-03-25T05:37:53;8.50;99.90
13229;DHT22;6680;53.220;10.402;2023-03-25T05:40:20;8.50;99.90
13229;DHT22;6680;53.220;10.402;2023-03-25T05:42:47;8.50;99.90
13229;DHT22;6680;53.220;10.402;2023-03-25T05:45:14;8.60;99.90
13229;DHT22;6680;53.220;10.402;2023-03-25T05:47:41;8.60;99.90
13229;DHT22;6680;53.220;10.402;2023-03-25T05:50:09;8.60;99.90
13229;DHT22;6680;53.220;10.402;2023-03-25T05:52:36;8.70;99.90
13229;DHT22;6680;53.220;10.402;2023-03-25T05:55:10;8.70;99.90
13229;DHT22;6680;53.220;10.402;2023-03-25T05:57:38;8.70;99.90
13229;DHT22;6680;53.220;10.402;2023-03-25T06:00:06;8.70;99.90
13229;DHT22;6680;53.220;10.402;2023-03-25T06:02:36;8.70;99.90
13229;DHT22;6680;53.220;10.402;2023-03-25T06:05:03;8.70;99.90
13229;DHT22;6680;53.220;10.402;2023-03-25T06:07:30;8.70;99.90
13229;DHT22;6680;53.220;10.402;2023-03-25T06:09:57;8.70;99.90
13229;DHT22;6680;53.220;10.402;2023-03-25T06:12:25;8.80;99.90
13229;DHT22;6680;53.220;10.402;2023-03-25T06:14:52;9.50;99.90
13229;DHT22;6680;53.220;10.402;2023-03-25T06:17:20;8.80;99.90
13229;DHT22;6680;53.220;10.402;2023-03-25T06:19:47;8.80;99.90
13229;DHT22;6680;53.220;10.402;2023-03-25T06:22:14;8.80;99.90
13229;DHT22;6680;53.220;10.402;2023-03-25T06:24:41;8.80;99.90
13229;DHT22;6680;53.220;10.402;2023-03-25T06:27:12;8.70;99.90
13229;DHT22;6680;53.220;10.402;2023-03-25T06:29:40;8.70;99.90
13229;DHT22;6680;53.220;10.402;2023-03-25T06:32:08;8.70;99.90
13229;DHT22;6680;53.220;10.402;2023-03-25T06:34:35;8.60;99.90
13229;DHT22;6680;53.220;10.402;2023-03-25T06:37:03;8.80;99.90
13229;DHT22;6680;53.220;10.402;2023-03-25T06:39:31;8.90;99.90
13229;DHT22;6680;53.220;10.402;2023-03-25T06:41:58;9.00;99.90
13229;DHT22;6680;53.220;10.402;2023-03-25T06:44:25;9.00;99.90
13229;DHT22;6680;53.220;10.402;2023-03-25T06:46:53;9.00;99.90
13229;DHT22;6680;53.220;10.402;2023-03-25T06:49:20;9.10;99.90
13229;DHT22;6680;53.220;10.402;2023-03-25T06:51:47;9.00;99.90
13229;DHT22;6680;53.220;10.402;2023-03-25T06:54:14;9.00;99.90
13229;DHT22;6680;53.220;10.402;2023-03-25T06:56:40;9.10;99.90
13229;DHT22;6680;53.220;10.402;2023-03-25T06:59:07;9.10;99.90
13229;DHT22;6680;53.220;10.402;2023-03-25T07:01:34;9.20;99.90
13229;DHT22;6680;53.220;10.402;2023-03-25T07:04:02;9.20;99.90
13229;DHT22;6680;53.220;10.402;2023-03-25T07:06:30;9.20;99.90
13229;DHT22;6680;53.220;10.402;2023-03-25T07:08:57;9.20;99.90
13229;DHT22;6680;53.220;10.402;2023-03-25T07:11:26;9.30;99.90
13229;DHT22;6680;53.220;10.402;2023-03-25T07:13:54;9.40;99.90
13229;DHT22;6680;53.220;10.402;2023-03-25T07:16:20;9.50;99.90
13229;DHT22;6680;53.220;10.402;2023-03-25T07:18:47;9.60;99.90
13229;DHT22;6680;53.220;10.402;2023-03-25T07:21:16;9.70;99.90
13229;DHT22;6680;53.220;10.402;2023-03-25T07:23:43;9.80;99.90
13229;DHT22;6680;53.220;10.402;2023-03-25T07:26:10;9.90;99.90
13229;DHT22;6680;53.220;10.402;2023-03-25T07:28:37;9.90;99.90
13229;DHT22;6680;53.220;10.402;2023-03-25T07:31:06;10.00;99.90
13229;DHT22;6680;53.220;10.402;2023-03-25T07:33:33;10.00;99.90
13229;DHT22;6680;53.220;10.402;2023-03-25T07:36:01;9.90;99.90
13229;DHT22;6680;53.220;10.402;2023-03-25T07:38:29;10.10;99.90
13229;DHT22;6680;53.220;10.402;2023-03-25T07:40:56;10.10;99.90
13229;DHT22;6680;53.220;10.402;2023-03-25T07:43:23;10.20;99.90
13229;DHT22;6680;53.220;10.402;2023-03-25T07:45:50;10.20;99.90
13229;DHT22;6680;53.220;10.402;2023-03-25T07:48:17;10.20;99.90
13229;DHT22;6680;53.220;10.402;2023-03-25T07:50:45;10.30;99.90
13229;DHT22;6680;53.220;10.402;2023-03-25T07:53:13;10.40;99.90
13229;DHT22;6680;53.220;10.402;2023-03-25T07:55:41;10.40;99.90
13229;DHT22;6680;53.220;10.402;2023-03-25T07:58:10;10.50;99.90
13229;DHT22;6680;53.220;10.402;2023-03-25T08:00:36;10.60;99.90
13229;DHT22;6680;53.220;10.402;2023-03-25T08:03:03;10.50;99.90
13229;DHT22;6680;53.220;10.402;2023-03-25T08:05:30;10.40;99.90
13229;DHT22;6680;53.220;10.402;2023-03-25T08:07:57;10.50;99.90
13229;DHT22;6680;53.220;10.402;2023-03-25T08:10:25;10.50;99.90
13229;DHT22;6680;53.220;10.402;2023-03-25T08:12:54;10.50;99.90
13229;DHT22;6680;53.220;10.402;2023-03-25T08:15:21;10.60;99.90
13229;DHT22;6680;53.220;10.402;2023-03-25T08:17:49;10.70;99.90
13229;DHT22;6680;53.220;10.402;2023-03-25T08:20:16;10.80;99.90
13229;DHT22;6680;53.220;10.402;2023-03-25T08:22:43;10.80;99.90
13229;DHT22;6680;53.220;10.402;2023-03-25T08:25:10;10.90;99.90
13229;DHT22;6680;53.220;10.402;2023-03-25T08:27:37;10.90;99.90
13229;DHT22;6680;53.220;10.402;2023-03-25T08:30:07;10.90;99.90
13229;DHT22;6680;53.220;10.402;2023-03-25T08:32:34;11.00;99.90
13229;DHT22;6680;53.220;10.402;2023-03-25T08:35:03;11.00;99.90
13229;DHT22;6680;53.220;10.402;2023-03-25T08:37:31;11.00;99.90
13229;DHT22;6680;53.220;10.402;2023-03-25T08:39:59;11.10;99.90
13229;DHT22;6680;53.220;10.402;2023-03-25T08:42:26;11.30;99.90
13229;DHT22;6680;53.220;10.402;2023-03-25T08:44:53;11.30;99.90
13229;DHT22;6680;53.220;10.402;2023-03-25T08:47:21;11.20;99.90
13229;DHT22;6680;53.220;10.402;2023-03-25T08:49:47;11.10;99.90
13229;DHT22;6680;53.220;10.402;2023-03-25T08:52:14;11.00;99.90
13229;DHT22;6680;53.220;10.402;2023-03-25T08:54:41;10.90;99.90
13229;DHT22;6680;53.220;10.402;2023-03-25T08:57:08;10.90;99.90
13229;DHT22;6680;53.220;10.402;2023-03-25T08:59:35;10.90;99.90
13229;DHT22;6680;53.220;10.402;2023-03-25T09:02:01;11.00;99.90
13229;DHT22;6680;53.220;10.402;2023-03-25T09:04:29;11.10;99.90
13229;DHT22;6680;53.220;10.402;2023-03-25T09:06:56;11.20;99.90
13229;DHT22;6680;53.220;10.402;2023-03-25T09:09:23;11.30;99.90
13229;DHT22;6680;53.220;10.402;2023-03-25T09:11:50;11.50;99.90
13229;DHT22;6680;53.220;10.402;2023-03-25T09:14:17;11.70;99.90
13229;DHT22;6680;53.220;10.402;2023-03-25T09:16:43;11.70;99.90
13229;DHT22;6680;53.220;10.402;2023-03-25T09:19:10;11.70;99.90
13229;DHT22;6680;53.220;10.402;2023-03-25T09:21:38;11.70;99.90
13229;DHT22;6680;53.220;10.402;2023-03-25T09:24:06;11.80;99.90
13229;DHT22;6680;53.220;10.402;2023-03-25T09:26:33;11.90;99.90
13229;DHT22;6680;53.220;10.402;2023-03-25T09:29:00;11.90;99.90
13229;DHT22;6680;53.220;10.402;2023-03-25T09:31:27;12.00;99.90
13229;DHT22;6680;53.220;10.402;2023-03-25T09:33:53;12.20;99.90
13229;DHT22;6680;53.220;10.402;2023-03-25T09:36:20;12.20;99.90
13229;DHT22;6680;53.220;10.402;2023-03-25T09:38:48;12.20;99.90
13229;DHT22;6680;53.220;10.402;2023-03-25T09:41:25;12.30;99.90
13229;DHT22;6680;53.220;10.402;2023-03-25T09:44:06;12.30;99.90
13229;DHT22;6680;53.220;10.402;2023-03-25T09:46:36;12.10;99.90
13229;DHT22;6680;53.220;10.402;2023-03-25T09:49:04;11.80;99.90
13229;DHT22;6680;53.220;10.402;2023-03-25T09:51:35;11.70;99.90
13229;DHT22;6680;53.220;10.402;2023-03-25T09:54:15;11.50;99.90
13229;DHT22;6680;53.220;10.402;2023-03-25T09:56:43;11.30;99.90
13229;DHT22;6680;53.220;10.402;2023-03-25T09:59:13;10.70;99.90
13229;DHT22;6680;53.220;10.402;2023-03-25T10:01:47;9.80;99.90
13229;DHT22;6680;53.220;10.402;2023-03-25T10:04:43;9.40;99.90
13229;DHT22;6680;53.220;10.402;2023-03-25T10:07:27;9.00;99.90
13229;DHT22;6680;53.220;10.402;2023-03-25T10:10:05;8.60;99.90
13229;DHT22;6680;53.220;10.402;2023-03-25T10:12:38;8.60;99.90
13229;DHT22;6680;53.220;10.402;2023-03-25T10:15:16;8.60;99.90
13229;DHT22;6680;53.220;10.402;2023-03-25T10:17:57;8.70;99.90
13229;DHT22;6680;53.220;10.402;2023-03-25T10:20:40;8.70;99.90
13229;DHT22;6680;53.220;10.402;2023-03-25T10:23:15;8.70;99.90
13229;DHT22;6680;53.220;10.402;2023-03-25T10:25:53;8.70;99.90
13229;DHT22;6680;53.220;10.402;2023-03-25T10:28:26;8.60;99.90
13229;DHT22;6680;53.220;10.402;2023-03-25T10:30:54;8.60;99.90
13229;DHT22;6680;53.220;10.402;2023-03-25T10:33:28;8.60;99.90
13229;DHT22;6680;53.220;10.402;2023-03-25T10:35:57;8.70;99.90
13229;DHT22;6680;53.220;10.402;2023-03-25T10:38:25;8.70;99.90
13229;DHT22;6680;53.220;10.402;2023-03-25T10:41:03;8.70;99.90
13229;DHT22;6680;53.220;10.402;2023-03-25T10:43:33;8.90;99.90
13229;DHT22;6680;53.220;10.402;2023-03-25T10:46:07;9.20;99.90
13229;DHT22;6680;53.220;10.402;2023-03-25T10:48:37;9.50;99.90
13229;DHT22;6680;53.220;10.402;2023-03-25T10:51:08;9.50;99.90
13229;DHT22;6680;53.220;10.402;2023-03-25T10:53:35;9.70;99.90
13229;DHT22;6680;53.220;10.402;2023-03-25T10:56:06;9.90;99.90
13229;DHT22;6680;53.220;10.402;2023-03-25T10:58:34;10.10;99.90
13229;DHT22;6680;53.220;10.402;2023-03-25T11:01:10;10.30;99.90
13229;DHT22;6680;53.220;10.402;2023-03-25T11:03:39;10.50;99.90
13229;DHT22;6680;53.220;10.402;2023-03-25T11:06:08;10.60;99.90
13229;DHT22;6680;53.220;10.402;2023-03-25T11:08:55;10.80;99.90
13229;DHT22;6680;53.220;10.402;2023-03-25T11:11:30;10.70;99.90
13229;DHT22;6680;53.220;10.402;2023-03-25T11:13:57;10.70;99.90
13229;DHT22;6680;53.220;10.402;2023-03-25T11:16:24;10.70;99.90
13229;DHT22;6680;53.220;10.402;2023-03-25T11:18:52;10.70;99.90
13229;DHT22;6680;53.220;10.402;2023-03-25T11:21:19;10.90;99.90
13229;DHT22;6680;53.220;10.402;2023-03-25T11:23:47;11.10;99.90
13229;DHT22;6680;53.220;10.402;2023-03-25T11:26:19;11.20;99.90
13229;DHT22;6680;53.220;10.402;2023-03-25T11:28:48;11.60;99.90
13229;DHT22;6680;53.220;10.402;2023-03-25T11:31:18;11.50;99.90
13229;DHT22;6680;53.220;10.402;2023-03-25T11:33:50;11.70;99.90
13229;DHT22;6680;53.220;10.402;2023-03-25T11:36:27;11.60;99.90
13229;DHT22;6680;53.220;10.402;2023-03-25T11:38:59;11.50;99.90
13229;DHT22;6680;53.220;10.402;2023-03-25T11:41:30;11.40;99.90
13229;DHT22;6680;53.220;10.402;2023-03-25T11:44:00;11.40;99.90
13229;DHT22;6680;53.220;10.402;2023-03-25T11:46:27;11.30;99.90
13229;DHT22;6680;53.220;10.402;2023-03-25T11:48:54;11.20;99.90
13229;DHT22;6680;53.220;10.402;2023-03-25T11:51:23;11.10;99.90
13229;DHT22;6680;53.220;10.402;2023-03-25T11:53:55;11.10;99.90
13229;DHT22;6680;53.220;10.402;2023-03-25T11:56:27;11.10;99.90
13229;DHT22;6680;53.220;10.402;2023-03-25T11:58:57;10.90;99.90
13229;DHT22;6680;53.220;10.402;2023-03-25T12:01:28;10.70;99.90
13229;DHT22;6680;53.220;10.402;2023-03-25T12:04:13;10.50;99.90
13229;DHT22;6680;53.220;10.402;2023-03-25T12:06:56;10.40;99.90
13229;DHT22;6680;53.220;10.402;2023-03-25T12:09:24;10.20;99.90
13229;DHT22;6680;53.220;10.402;2023-03-25T12:12:20;10.10;99.90
13229;DHT22;6680;53.220;10.402;2023-03-25T12:14:57;10.00;99.90
13229;DHT22;6680;53.220;10.402;2023-03-25T12:17:38;9.80;99.90
13229;DHT22;6680;53.220;10.402;2023-03-25T12:20:19;9.50;99.90
13229;DHT22;6680;53.220;10.402;2023-03-25T12:22:55;9.40;99.90
13229;DHT22;6680;53.220;10.402;2023-03-25T12:25:35;9.10;99.90
13229;DHT22;6680;53.220;10.402;2023-03-25T12:31:07;9.10;99.90
13229;DHT22;6680;53.220;10.402;2023-03-25T12:33:47;9.40;99.90
13229;DHT22;6680;53.220;10.402;2023-03-25T12:36:25;9.70;99.90
13229;DHT22;6680;53.220;10.402;2023-03-25T12:39:08;9.90;99.90
13229;DHT22;6680;53.220;10.402;2023-03-25T12:41:46;10.10;99.90
13229;DHT22;6680;53.220;10.402;2023-03-25T12:44:28;10.20;99.90
13229;DHT22;6680;53.220;10.402;2023-03-25T12:47:05;10.30;99.90
13229;DHT22;6680;53.220;10.402;2023-03-25T12:50:07;10.30;99.90
13229;DHT22;6680;53.220;10.402;2023-03-25T12:52:42;10.40;99.90
13229;DHT22;6680;53.220;10.402;2023-03-25T12:55:33;10.60;99.90
13229;DHT22;6680;53.220;10.402;2023-03-25T12:58:18;10.70;99.90
13229;DHT22;6680;53.220;10.402;2023-03-25T13:00:56;10.80;99.90
13229;DHT22;6680;53.220;10.402;2023-03-25T13:03:51;11.00;99.90
13229;DHT22;6680;53.220;10.402;2023-03-25T13:06:26;11.10;99.90
13229;DHT22;6680;53.220;10.402;2023-03-25T13:08:59;11.20;99.90
13229;DHT22;6680;53.220;10.402;2023-03-25T13:11:32;11.30;99.90
13229;DHT22;6680;53.220;10.402;2023-03-25T13:14:05;11.20;99.90
13229;DHT22;6680;53.220;10.402;2023-03-25T13:16:35;10.90;99.90
13229;DHT22;6680;53.220;10.402;2023-03-25T13:19:06;10.80;99.90
13229;DHT22;6680;53.220;10.402;2023-03-25T13:21:39;10.80;99.90
13229;DHT22;6680;53.220;10.402;2023-03-25T13:24:11;10.80;99.90
13229;DHT22;6680;53.220;10.402;2023-03-25T13:26:39;10.90;99.90
13229;DHT22;6680;53.220;10.402;2023-03-25T13:29:13;10.80;99.90
13229;DHT22;6680;53.220;10.402;2023-03-25T13:31:44;10.60;99.90
13229;DHT22;6680;53.220;10.402;2023-03-25T13:34:19;10.50;99.90
13229;DHT22;6680;53.220;10.402;2023-03-25T13:36:59;10.30;99.90
13229;DHT22;6680;53.220;10.402;2023-03-25T13:39:33;10.00;99.90
13229;DHT22;6680;53.220;10.402;2023-03-25T13:42:05;9.80;99.90
13229;DHT22;6680;53.220;10.402;2023-03-25T13:44:35;9.70;99.90
13229;DHT22;6680;53.220;10.402;2023-03-25T13:47:05;9.60;99.90
13229;DHT22;6680;53.220;10.402;2023-03-25T13:49:38;9.60;99.90
13229;DHT22;6680;53.220;10.402;2023-03-25T13:52:09;9.60;99.90
13229;DHT22;6680;53.220;10.402;2023-03-25T13:54:43;9.50;99.90
13229;DHT22;6680;53.220;10.402;2023-03-25T13:57:25;9.50;99.90
13229;DHT22;6680;53.220;10.402;2023-03-25T14:00:12;9.60;99.90
13229;DHT22;6680;53.220;10.402;2023-03-25T14:02:54;9.70;99.90
13229;DHT22;6680;53.220;10.402;2023-03-25T14:05:51;9.60;99.90
13229;DHT22;6680;53.220;10.402;2023-03-25T14:08:50;9.60;99.90
13229;DHT22;6680;53.220;10.402;2023-03-25T14:11:24;9.70;99.90
13229;DHT22;6680;53.220;10.402;2023-03-25T14:13:53;9.80;99.90
13229;DHT22;6680;53.220;10.402;2023-03-25T14:16:23;9.80;99.90
13229;DHT22;6680;53.220;10.402;2023-03-25T14:18:53;9.80;99.90
13229;DHT22;6680;53.220;10.402;2023-03-25T14:21:29;9.80;99.90
13229;DHT22;6680;53.220;10.402;2023-03-25T14:24:04;9.80;99.90
13229;DHT22;6680;53.220;10.402;2023-03-25T14:26:33;9.80;99.90
13229;DHT22;6680;53.220;10.402;2023-03-25T14:29:06;9.70;99.90
13229;DHT22;6680;53.220;10.402;2023-03-25T14:31:34;9.70;99.90
13229;DHT22;6680;53.220;10.402;2023-03-25T14:34:22;9.70;99.90
13229;DHT22;6680;53.220;10.402;2023-03-25T14:37:16;9.60;99.90
13229;DHT22;6680;53.220;10.402;2023-03-25T14:39:44;9.50;99.90
13229;DHT22;6680;53.220;10.402;2023-03-25T14:42:24;9.60;99.90
13229;DHT22;6680;53.220;10.402;2023-03-25T14:44:53;9.60;99.90
13229;DHT22;6680;53.220;10.402;2023-03-25T14:47:50;9.70;99.90
13229;DHT22;6680;53.220;10.402;2023-03-25T14:50:29;9.90;99.90
13229;DHT22;6680;53.220;10.402;2023-03-25T14:52:59;10.00;99.90
13229;DHT22;6680;53.220;10.402;2023-03-25T14:55:30;9.90;99.90
13229;DHT22;6680;53.220;10.402;2023-03-25T14:57:59;10.00;99.90
13229;DHT22;6680;53.220;10.402;2023-03-25T15:00:30;10.10;99.90
13229;DHT22;6680;53.220;10.402;2023-03-25T15:03:00;10.20;99.90
13229;DHT22;6680;53.220;10.402;2023-03-25T15:05:30;10.30;99.90
13229;DHT22;6680;53.220;10.402;2023-03-25T15:07:59;10.40;99.90
13229;DHT22;6680;53.220;10.402;2023-03-25T15:10:38;10.50;99.90
13229;DHT22;6680;53.220;10.402;2023-03-25T15:13:09;10.60;99.90
13229;DHT22;6680;53.220;10.402;2023-03-25T15:15:53;10.60;99.90
13229;DHT22;6680;53.220;10.402;2023-03-25T15:18:57;10.70;99.90
13229;DHT22;6680;53.220;10.402;2023-03-25T15:21:25;10.70;99.90
13229;DHT22;6680;53.220;10.402;2023-03-25T15:24:01;10.70;99.90
13229;DHT22;6680;53.220;10.402;2023-03-25T15:26:33;10.70;99.90
13229;DHT22;6680;53.220;10.402;2023-03-25T15:29:26;10.70;99.90
13229;DHT22;6680;53.220;10.402;2023-03-25T15:32:06;10.50;99.90
13229;DHT22;6680;53.220;10.402;2023-03-25T15:34:46;10.50;99.90
13229;DHT22;6680;53.220;10.402;2023-03-25T15:37:48;10.50;99.90
13229;DHT22;6680;53.220;10.402;2023-03-25T15:40:25;10.50;99.90
13229;DHT22;6680;53.220;10.402;2023-03-25T15:43:19;10.50;99.90
13229;DHT22;6680;53.220;10.402;2023-03-25T15:46:00;10.40;99.90
13229;DHT22;6680;53.220;10.402;2023-03-25T15:48:52;10.30;99.90
13229;DHT22;6680;53.220;10.402;2023-03-25T15:51:43;10.60;99.90
13229;DHT22;6680;53.220;10.402;2023-03-25T15:54:24;10.50;99.90
13229;DHT22;6680;53.220;10.402;2023-03-25T15:56:55;10.50;99.90
13229;DHT22;6680;53.220;10.402;2023-03-25T15:59:37;10.40;99.90
13229;DHT22;6680;53.220;10.402;2023-03-25T16:02:13;10.20;99.90
13229;DHT22;6680;53.220;10.402;2023-03-25T16:04:44;10.10;99.90
13229;DHT22;6680;53.220;10.402;2023-03-25T16:07:15;10.00;99.90
13229;DHT22;6680;53.220;10.402;2023-03-25T16:09:45;9.90;99.90
13229;DHT22;6680;53.220;10.402;2023-03-25T16:12:18;9.90;99.90
13229;DHT22;6680;53.220;10.402;2023-03-25T16:14:47;9.90;99.90
13229;DHT22;6680;53.220;10.402;2023-03-25T16:17:16;9.90;99.90
13229;DHT22;6680;53.220;10.402;2023-03-25T16:19:45;9.90;99.90